createdAt,value
2022-09-13T00:00:13.986Z,17.68
2022-09-13T00:03:19.969Z,17.78
2022-09-13T00:06:25.354Z,17.71
2022-09-13T00:09:18.578Z,17.65
2022-09-13T00:12:24.049Z,17.69
2022-09-13T00:15:30.151Z,17.67
2022-09-13T00:18:36.609Z,17.57
2022-09-13T00:21:42.969Z,17.60
2022-09-13T00:24:48.617Z,17.58
2022-09-13T00:27:54.523Z,17.69
2022-09-13T00:31:00.569Z,17.63
2022-09-13T00:34:05.737Z,17.69
2022-09-13T00:37:12.128Z,17.77
2022-09-13T00:40:17.885Z,17.69
2022-09-13T00:43:29.979Z,17.82
2022-09-13T00:46:57.610Z,17.83
2022-09-13T00:50:03.153Z,17.85
2022-09-13T00:53:23.176Z,18.04
2022-09-13T00:56:34.256Z,18.05
2022-09-13T00:59:52.710Z,18.05
2022-09-13T01:03:16.095Z,18.22
2022-09-13T01:06:27.737Z,18.33
2022-09-13T01:09:32.786Z,18.31
2022-09-13T01:13:14.435Z,18.31
2022-09-13T01:16:21.301Z,18.25
2022-09-13T01:19:28.949Z,18.26
2022-09-13T01:23:07.903Z,18.21
2022-09-13T01:26:40.620Z,18.43
2022-09-13T01:30:26.732Z,18.39
2022-09-13T01:33:54.703Z,18.54
2022-09-13T01:37:22.927Z,18.41
2022-09-13T01:40:40.078Z,18.66
2022-09-13T01:44:00.362Z,18.31
2022-09-13T01:47:18.540Z,18.29
2022-09-13T01:50:54.919Z,18.33
2022-09-13T01:54:32.958Z,18.46
2022-09-13T01:57:51.972Z,18.43
2022-09-13T02:01:33.920Z,18.46
2022-09-13T02:04:43.974Z,18.28
2022-09-13T02:07:56.496Z,18.34
2022-09-13T02:11:14.616Z,18.35
2022-09-13T02:14:31.323Z,18.38
2022-09-13T02:17:39.749Z,18.36
2022-09-13T02:20:50.133Z,18.34
2022-09-13T02:23:59.368Z,18.23
2022-09-13T02:27:06.510Z,18.32
2022-09-13T02:30:08.766Z,18.22
2022-09-13T02:33:15.570Z,18.20
2022-09-13T02:36:13.985Z,18.21
2022-09-13T02:39:13.061Z,18.22
2022-09-13T02:42:31.608Z,18.22
2022-09-13T02:45:38.200Z,18.14
2022-09-13T02:48:57.486Z,18.20
2022-09-13T02:52:17.008Z,18.29
2022-09-13T02:55:40.567Z,18.23
2022-09-13T02:58:50.657Z,18.32
2022-09-13T03:01:58.505Z,18.39
2022-09-13T03:05:05.986Z,18.35
2022-09-13T03:08:12.941Z,18.32
2022-09-13T03:11:51.958Z,18.31
2022-09-13T03:15:38.363Z,18.25
2022-09-13T03:19:08.699Z,18.33
2022-09-13T03:22:21.853Z,18.30
2022-09-13T03:25:47.611Z,18.31
2022-09-13T03:29:19.799Z,18.22
2022-09-13T03:32:36.690Z,18.27
2022-09-13T03:35:49.323Z,18.28
2022-09-13T03:39:31.099Z,18.33
2022-09-13T03:42:47.116Z,18.37
2022-09-13T03:45:58.925Z,18.40
2022-09-13T03:49:03.210Z,18.30
2022-09-13T03:52:09.430Z,18.30
2022-09-13T03:55:15.181Z,18.33
2022-09-13T03:58:21.414Z,18.44
2022-09-13T04:01:26.336Z,18.50
2022-09-13T04:04:31.313Z,18.57
2022-09-13T04:07:38.759Z,18.57
2022-09-13T04:10:44.493Z,18.58
2022-09-13T04:13:51.641Z,18.42
2022-09-13T04:16:58.287Z,18.38
2022-09-13T04:20:03.214Z,18.47
2022-09-13T04:23:10.320Z,18.58
2022-09-13T04:26:19.919Z,18.51
2022-09-13T04:29:26.006Z,18.49
2022-09-13T04:32:31.609Z,18.54
2022-09-13T04:35:37.547Z,18.61
2022-09-13T04:38:44.317Z,18.80
2022-09-13T04:41:51.929Z,18.88
2022-09-13T04:44:57.310Z,18.90
2022-09-13T04:48:10.042Z,18.82
2022-09-13T04:51:21.387Z,18.87
2022-09-13T04:54:28.608Z,18.81
2022-09-13T04:57:29.414Z,18.76
2022-09-13T05:00:23.006Z,18.63
2022-09-13T05:03:28.776Z,18.64
2022-09-13T05:06:36.438Z,18.80
2022-09-13T05:09:42.203Z,18.76
2022-09-13T05:12:49.123Z,18.81
2022-09-13T05:15:55.706Z,18.78
2022-09-13T05:19:04.374Z,18.78
2022-09-13T05:22:11.814Z,18.79
2022-09-13T05:25:21.088Z,18.84
2022-09-13T05:28:25.711Z,18.96
2022-09-13T05:31:37.567Z,18.86
2022-09-13T05:34:43.023Z,18.99
2022-09-13T05:37:49.151Z,18.93
2022-09-13T05:40:54.894Z,18.90
2022-09-13T05:44:10.324Z,19.00
2022-09-13T05:47:08.110Z,19.16
2022-09-13T05:50:27.495Z,19.15
2022-09-13T05:53:20.509Z,19.23
2022-09-13T05:56:29.352Z,19.21
2022-09-13T05:59:34.386Z,19.20
2022-09-13T06:02:39.661Z,19.28
2022-09-13T06:05:45.446Z,19.49
2022-09-13T06:08:51.345Z,19.57
2022-09-13T06:11:57.764Z,19.73
2022-09-13T06:15:04.204Z,19.81
2022-09-13T06:18:12.066Z,19.89
2022-09-13T06:21:29.099Z,19.95
2022-09-13T06:24:33.600Z,20.02
2022-09-13T06:27:39.604Z,20.14
2022-09-13T06:30:44.353Z,20.26
2022-09-13T06:33:51.397Z,20.11
2022-09-13T06:37:00.985Z,20.09
2022-09-13T06:40:08.778Z,20.13
2022-09-13T06:43:14.193Z,20.35
2022-09-13T06:46:26.875Z,20.48
2022-09-13T06:49:33.300Z,20.43
2022-09-13T06:52:39.823Z,20.34
2022-09-13T06:55:45.003Z,20.34
2022-09-13T06:58:51.100Z,20.22
2022-09-13T07:01:58.361Z,20.25
2022-09-13T07:05:03.295Z,20.33
2022-09-13T07:08:09.044Z,20.17
2022-09-13T07:11:16.482Z,20.08
2022-09-13T07:14:22.215Z,20.01
2022-09-13T07:17:31.184Z,20.05
2022-09-13T07:20:33.379Z,19.90
2022-09-13T07:23:38.843Z,20.04
2022-09-13T07:26:43.887Z,20.20
2022-09-13T07:29:50.351Z,20.26
2022-09-13T07:32:58.009Z,20.22
2022-09-13T07:36:10.913Z,20.29
2022-09-13T07:39:22.420Z,20.65
2022-09-13T07:42:28.568Z,20.90
2022-09-13T07:45:40.759Z,21.07
2022-09-13T07:48:50.075Z,21.16
2022-09-13T07:51:58.684Z,21.26
2022-09-13T07:55:05.072Z,21.29
2022-09-13T07:58:12.368Z,21.18
2022-09-13T08:01:37.508Z,21.28
2022-09-13T08:04:46.273Z,21.40
2022-09-13T08:07:54.481Z,21.41
2022-09-13T08:10:59.982Z,21.43
2022-09-13T08:14:05.329Z,21.53
2022-09-13T08:17:11.410Z,21.38
2022-09-13T08:20:16.599Z,21.63
2022-09-13T08:23:22.182Z,21.88
2022-09-13T08:26:28.913Z,22.20
2022-09-13T08:29:33.640Z,22.41
2022-09-13T08:32:38.603Z,22.30
2022-09-13T08:35:45.322Z,22.22
2022-09-13T08:38:51.394Z,21.97
2022-09-13T08:42:06.939Z,21.93
2022-09-13T08:45:13.795Z,21.97
2022-09-13T08:48:22.449Z,22.11
2022-09-13T08:51:44.916Z,21.99
2022-09-13T08:54:52.040Z,22.08
2022-09-13T08:58:20.950Z,22.15
2022-09-13T09:01:46.056Z,22.07
2022-09-13T09:05:02.180Z,22.02
2022-09-13T09:08:23.589Z,21.94
2022-09-13T09:12:07.404Z,21.99
2022-09-13T09:15:13.400Z,22.17
2022-09-13T09:18:37.272Z,22.39
2022-09-13T09:21:42.781Z,22.57
2022-09-13T09:24:50.481Z,22.57
2022-09-13T09:27:57.869Z,22.61
2022-09-13T09:31:25.790Z,22.70
2022-09-13T09:34:59.635Z,22.91
2022-09-13T09:38:40.293Z,23.15
2022-09-13T09:41:48.954Z,23.57
2022-09-13T09:44:56.340Z,23.56
2022-09-13T09:48:08.354Z,23.56
2022-09-13T09:51:14.817Z,23.67
2022-09-13T09:54:20.030Z,23.50
2022-09-13T09:57:27.250Z,23.27
2022-09-13T10:00:36.598Z,23.06
2022-09-13T10:03:48.121Z,22.76
2022-09-13T10:06:59.310Z,22.50
2022-09-13T10:10:18.795Z,22.36
2022-09-13T10:13:34.526Z,22.26
2022-09-13T10:16:45.437Z,22.08
2022-09-13T10:19:53.567Z,22.18
2022-09-13T10:22:59.396Z,22.40
2022-09-13T10:26:07.913Z,22.67
2022-09-13T10:29:22.672Z,22.95
2022-09-13T10:32:27.826Z,23.26
2022-09-13T10:35:33.357Z,23.51
2022-09-13T10:38:55.613Z,23.39
2022-09-13T10:42:12.425Z,23.55
2022-09-13T10:45:21.799Z,23.44
2022-09-13T10:48:31.659Z,23.35
2022-09-13T10:51:47.818Z,23.51
2022-09-13T10:54:54.947Z,23.52
2022-09-13T10:58:09.967Z,23.48
2022-09-13T11:01:40.885Z,23.44
2022-09-13T11:05:05.164Z,23.31
2022-09-13T11:08:41.568Z,23.59
2022-09-13T11:12:11.009Z,23.62
2022-09-13T11:15:59.967Z,23.42
2022-09-13T11:19:33.689Z,23.63
2022-09-13T11:23:05.239Z,23.57
2022-09-13T11:26:22.538Z,23.65
2022-09-13T11:30:01.973Z,23.70
2022-09-13T11:33:26.534Z,23.72
2022-09-13T11:37:01.367Z,23.59
2022-09-13T11:40:34.962Z,23.66
2022-09-13T11:44:01.324Z,23.55
2022-09-13T11:47:48.283Z,23.62
2022-09-13T11:51:05.712Z,23.76
2022-09-13T11:54:34.924Z,23.82
2022-09-13T11:57:45.557Z,23.93
2022-09-13T12:00:55.900Z,23.58
2022-09-13T12:04:17.910Z,23.31
2022-09-13T12:07:30.228Z,23.05
2022-09-13T12:10:50.921Z,22.93
2022-09-13T12:14:05.322Z,22.73
2022-09-13T12:16:55.523Z,22.41
2022-09-13T12:19:54.107Z,22.30
2022-09-13T12:22:49.366Z,22.12
2022-09-13T12:26:32.712Z,22.05
2022-09-13T12:30:01.709Z,22.01
2022-09-13T12:33:00.391Z,21.77
2022-09-13T12:36:19.894Z,21.77
2022-09-13T12:40:00.386Z,21.71
2022-09-13T12:43:33.532Z,21.69
2022-09-13T12:46:58.453Z,21.68
2022-09-13T12:50:42.935Z,21.50
2022-09-13T12:54:03.091Z,21.26
2022-09-13T12:57:46.163Z,21.50
2022-09-13T13:01:21.870Z,21.44
2022-09-13T13:04:33.350Z,21.59
2022-09-13T13:07:39.145Z,21.47
2022-09-13T13:10:48.068Z,21.37
2022-09-13T13:14:00.841Z,21.42
2022-09-13T13:17:05.676Z,21.31
2022-09-13T13:20:10.575Z,21.29
2022-09-13T13:23:38.741Z,21.20
2022-09-13T13:27:11.365Z,21.30
2022-09-13T13:30:56.394Z,21.21
2022-09-13T13:34:06.947Z,21.10
2022-09-13T13:37:25.652Z,21.11
2022-09-13T13:40:39.418Z,21.10
2022-09-13T13:43:48.659Z,21.12
2022-09-13T13:46:55.010Z,21.10
2022-09-13T13:50:16.501Z,21.14
2022-09-13T13:53:42.266Z,21.09
2022-09-13T13:57:02.701Z,20.90
2022-09-13T14:00:20.730Z,20.78
2022-09-13T14:04:00.031Z,20.96
2022-09-13T14:07:54.224Z,21.00
2022-09-13T14:11:13.634Z,20.94
2022-09-13T14:14:40.494Z,20.95
2022-09-13T14:18:08.989Z,20.98
2022-09-13T14:21:17.103Z,20.89
2022-09-13T14:24:35.298Z,20.74
2022-09-13T14:27:51.433Z,20.75
2022-09-13T14:30:56.880Z,20.79
2022-09-13T14:34:02.916Z,20.95
2022-09-13T14:37:13.663Z,20.88
2022-09-13T14:40:43.893Z,20.88
2022-09-13T14:43:58.124Z,20.81
2022-09-13T14:47:13.238Z,20.83
2022-09-13T14:50:39.993Z,20.86
2022-09-13T14:53:57.200Z,20.76
2022-09-13T14:57:08.849Z,20.64
2022-09-13T15:00:18.646Z,20.61
2022-09-13T15:03:30.930Z,20.50
2022-09-13T15:06:45.228Z,20.51
2022-09-13T15:09:50.405Z,20.55
2022-09-13T15:13:23.290Z,20.40
2022-09-13T15:16:44.344Z,20.26
2022-09-13T15:20:05.328Z,20.23
2022-09-13T15:23:09.890Z,20.11
2022-09-13T15:26:25.733Z,19.95
2022-09-13T15:29:33.633Z,19.84
2022-09-13T15:32:56.263Z,19.77
2022-09-13T15:36:08.618Z,19.56
2022-09-13T15:39:30.170Z,19.44
2022-09-13T15:42:36.569Z,19.39
2022-09-13T15:45:42.176Z,19.35
2022-09-13T15:48:52.663Z,19.46
2022-09-13T15:52:01.305Z,19.45
2022-09-13T15:55:10.660Z,19.20
2022-09-13T15:58:22.627Z,19.16
2022-09-13T16:01:31.022Z,18.98
2022-09-13T16:04:36.737Z,18.98
2022-09-13T16:07:43.130Z,19.00
2022-09-13T16:10:48.232Z,19.05
2022-09-13T16:13:53.852Z,19.04
2022-09-13T16:16:59.065Z,19.01
2022-09-13T16:20:04.247Z,18.70
2022-09-13T16:23:09.990Z,18.65
2022-09-13T16:26:14.718Z,18.60
2022-09-13T16:29:12.738Z,18.61
2022-09-13T16:32:18.927Z,18.60
2022-09-13T16:35:25.553Z,18.54
2022-09-13T16:38:30.687Z,18.40
2022-09-13T16:41:38.766Z,18.30
2022-09-13T16:44:45.441Z,18.45
2022-09-13T16:47:50.543Z,18.34
2022-09-13T16:50:57.076Z,18.31
2022-09-13T16:54:03.502Z,18.29
2022-09-13T16:57:10.684Z,18.20
2022-09-13T17:00:18.922Z,18.12
2022-09-13T17:03:24.482Z,18.09
2022-09-13T17:06:32.414Z,18.08
2022-09-13T17:09:37.891Z,18.00
2022-09-13T17:12:44.434Z,18.01
2022-09-13T17:15:56.575Z,18.05
2022-09-13T17:19:01.390Z,18.29
2022-09-13T17:22:06.881Z,18.00
2022-09-13T17:25:12.891Z,17.95
2022-09-13T17:28:19.342Z,17.91
2022-09-13T17:31:25.771Z,17.97
2022-09-13T17:34:31.680Z,18.03
2022-09-13T17:37:37.902Z,17.96
2022-09-13T17:40:44.535Z,17.89
2022-09-13T17:43:51.226Z,17.74
2022-09-13T17:46:57.679Z,17.76
2022-09-13T17:50:03.490Z,17.74
2022-09-13T17:53:11.108Z,17.69
2022-09-13T17:56:17.317Z,17.84
2022-09-13T17:59:27.817Z,17.83
2022-09-13T18:02:35.328Z,17.84
2022-09-13T18:05:41.889Z,17.84
2022-09-13T18:08:49.032Z,17.66
2022-09-13T18:11:55.270Z,17.68
2022-09-13T18:15:01.018Z,17.68
2022-09-13T18:18:07.579Z,17.73
2022-09-13T18:21:14.026Z,17.69
2022-09-13T18:24:19.821Z,17.72
2022-09-13T18:27:26.672Z,17.79
2022-09-13T18:30:32.060Z,17.83
2022-09-13T18:33:37.678Z,17.81
2022-09-13T18:36:44.493Z,17.88
2022-09-13T18:39:50.535Z,17.94
2022-09-13T18:42:55.790Z,17.95
2022-09-13T18:46:11.949Z,17.95
2022-09-13T18:49:17.160Z,17.85
2022-09-13T18:52:23.240Z,17.80
2022-09-13T18:55:28.768Z,17.81
2022-09-13T18:58:27.936Z,17.75
2022-09-13T19:01:39.271Z,17.74
2022-09-13T19:04:44.934Z,17.73
2022-09-13T19:07:50.553Z,17.72
2022-09-13T19:10:56.739Z,17.67
2022-09-13T19:14:03.104Z,17.77
2022-09-13T19:17:11.687Z,17.63
2022-09-13T19:20:17.297Z,17.73
2022-09-13T19:23:33.783Z,17.71
2022-09-13T19:26:37.750Z,17.62
2022-09-13T19:29:42.959Z,17.47
2022-09-13T19:32:48.740Z,17.49
2022-09-13T19:35:55.451Z,17.51
2022-09-13T19:39:00.928Z,17.58
2022-09-13T19:42:07.593Z,17.66
2022-09-13T19:45:13.446Z,17.66
2022-09-13T19:48:38.077Z,17.74
2022-09-13T19:51:27.919Z,17.83
2022-09-13T19:54:34.277Z,17.77
2022-09-13T19:57:44.336Z,17.75
2022-09-13T20:00:46.815Z,17.78
2022-09-13T20:03:53.118Z,17.81
2022-09-13T20:07:06.817Z,17.85
2022-09-13T20:10:11.495Z,17.94
2022-09-13T20:13:18.608Z,17.86
2022-09-13T20:16:32.184Z,17.83
2022-09-13T20:19:43.781Z,17.88
2022-09-13T20:22:46.948Z,17.78
2022-09-13T20:25:53.439Z,17.95
2022-09-13T20:28:59.990Z,17.91
2022-09-13T20:32:06.872Z,18.10
2022-09-13T20:35:12.712Z,18.16
2022-09-13T20:38:18.093Z,18.12
2022-09-13T20:41:26.784Z,18.17
2022-09-13T20:44:32.140Z,18.22
2022-09-13T20:47:38.428Z,18.22
2022-09-13T20:50:45.539Z,18.20
2022-09-13T20:53:51.879Z,18.16
2022-09-13T20:56:57.700Z,18.21
2022-09-13T20:59:57.645Z,18.25
2022-09-13T21:03:03.401Z,18.30
2022-09-13T21:06:09.431Z,18.22
2022-09-13T21:09:15.427Z,18.14
2022-09-13T21:12:23.065Z,18.03
2022-09-13T21:15:29.653Z,17.77
2022-09-13T21:18:37.688Z,17.75
2022-09-13T21:21:47.346Z,17.74
2022-09-13T21:24:52.898Z,17.56
2022-09-13T21:27:59.940Z,17.63
2022-09-13T21:31:16.099Z,17.69
2022-09-13T21:34:31.119Z,17.70
2022-09-13T21:37:37.100Z,17.58
2022-09-13T21:40:43.148Z,17.55
2022-09-13T21:43:48.661Z,17.58
2022-09-13T21:46:54.951Z,17.66
2022-09-13T21:49:59.676Z,17.65
2022-09-13T21:53:06.603Z,17.38
2022-09-13T21:56:16.531Z,17.14
2022-09-13T21:59:30.282Z,17.16
2022-09-13T22:02:36.033Z,17.15
2022-09-13T22:05:41.702Z,16.99
2022-09-13T22:08:53.874Z,16.94
2022-09-13T22:12:01.684Z,16.98
2022-09-13T22:15:07.836Z,17.05
2022-09-13T22:18:13.662Z,17.20
2022-09-13T22:21:25.453Z,16.97
2022-09-13T22:24:34.138Z,17.08
2022-09-13T22:27:39.393Z,17.29
2022-09-13T22:30:45.619Z,17.13
2022-09-13T22:33:51.218Z,17.21
2022-09-13T22:36:57.127Z,17.18
2022-09-13T22:40:04.927Z,17.25
2022-09-13T22:43:11.532Z,17.23
2022-09-13T22:46:33.817Z,17.36
2022-09-13T22:49:39.010Z,17.32
2022-09-13T22:52:44.964Z,17.40
2022-09-13T22:55:50.496Z,17.31
2022-09-13T22:58:56.107Z,17.16
2022-09-13T23:02:02.763Z,17.08
2022-09-13T23:05:07.594Z,17.14
2022-09-13T23:08:13.493Z,17.15
2022-09-13T23:11:37.240Z,16.97
2022-09-13T23:14:43.211Z,17.06
2022-09-13T23:17:48.806Z,16.97
2022-09-13T23:20:55.388Z,16.94
2022-09-13T23:24:00.647Z,16.96
2022-09-13T23:27:09.104Z,17.02
2022-09-13T23:30:14.459Z,16.89
2022-09-13T23:33:21.119Z,16.81
2022-09-13T23:36:29.283Z,16.94
2022-09-13T23:39:28.618Z,16.69
2022-09-13T23:42:34.701Z,16.86
2022-09-13T23:45:39.670Z,16.62
2022-09-13T23:48:44.751Z,16.57
2022-09-13T23:51:50.060Z,16.69
2022-09-13T23:54:55.464Z,16.75
2022-09-13T23:58:00.761Z,16.80
